Airfield :
LOGIN :

Register | Disclaimer

   EN    FR    IT 

 










Legend :    VFR   Marginal VFR   IFR   Intensive IFR   Very Intensive IFR
Visi :
Ceiling :
>= 8 km
>= 3000ft
5 to 8 km
1000 to 3000 ft
1500m to 5 km
500 to 1000 ft
800 to 1500m
200 to 500 ft
< 800m
< 200 ft
Symbols :   Thunderstorms  Fog  Heavy snow  Heavy precipitations  Wind > 20 kt
SIGMETs :     Misc.  Thunderstorms  Icing  Turbulence  Mountain Waves  Volcanic Ashes






- Airport Elevation : 400 ft
- IATA code : BNX


LQBK - Banja Luka

CURRENT METAR :
  • 210500Z 13004KT 3000 BR NSC 06/06 Q1013 NOSIG

EXPIRED METARs :
  • 210430Z 21004KT 3000 0400N R17/0400N BCFG SCT047 06/06 Q1013 NOSIG
  • 210400Z 07002KT 2500 BR SCT047 06/06 Q1013 NOSIG
  • 210330Z 20002KT 4000 0400N R17/0800U BCFG SCT047 06/05 Q1013 NOSIG
  • 210300Z 20002KT 4000 BR SCT047 07/06 Q1013 NOSIG
  • 210230Z 02004KT 4000 BR BKN047 07/06 Q1013 NOSIG

TAF TAF LQBK
Valid from the 21 at 00:00 until the 22 at 00:00 UTC


202300Z 2100/2124 VRB02KT 9999 BKN040 TX12/2113Z TN06/2106Z
PROB40
TEMPO 2100/2103 2000 BCFG BKN002 OVC020
PROB30
TEMPO 2103/2108 0300 FG VV002



MET'MAP, your aeronautical weather chart ! - Copyright ORBIFLY December 2007 - Disclaimer

ORBIFLY MET'MAP TEAM :

Programming & Development : Alexandra Zaïnal
Concept & Development : Baudouin d'Aumeries
Co-Development & Prog : Marc-Olivier Méhu
Technical & hardware support : Manuel Goepfert

Contact : metmap@orbifly.com




SOURCES & CREDITS :

   NOAA